createdAt,value
2018-07-05T00:02:32.155Z,94264.38
2018-07-05T00:05:12.869Z,94262.03
2018-07-05T00:07:53.451Z,94262.10
2018-07-05T00:10:34.220Z,94256.73
2018-07-05T00:13:14.798Z,94251.39
2018-07-05T00:15:56.081Z,94246.95
2018-07-05T00:18:36.523Z,94253.86
2018-07-05T00:21:17.619Z,94241.66
2018-07-05T00:23:57.918Z,94241.33
2018-07-05T00:26:38.220Z,94240.76
2018-07-05T00:29:18.501Z,94237.78
2018-07-05T00:31:59.859Z,94231.59
2018-07-05T00:34:40.029Z,94228.42
2018-07-05T00:37:20.190Z,94226.98
2018-07-05T00:40:00.647Z,94223.67
2018-07-05T00:42:41.236Z,94220.83
2018-07-05T00:45:21.655Z,94223.67
2018-07-05T00:48:02.019Z,94214.17
2018-07-05T00:50:42.616Z,94218.43
2018-07-05T00:53:23.535Z,94223.03
2018-07-05T00:56:04.504Z,94220.72
2018-07-05T00:58:44.738Z,94225.49
2018-07-05T01:01:26.282Z,94226.59
2018-07-05T01:04:06.783Z,94230.17
2018-07-05T01:06:46.711Z,94231.79
2018-07-05T01:09:28.317Z,94240.71
2018-07-05T01:12:08.308Z,94237.13
2018-07-05T01:14:48.810Z,94233.61
2018-07-05T01:17:28.973Z,94231.37
2018-07-05T01:20:09.375Z,94232.55
2018-07-05T01:22:49.801Z,94232.17
2018-07-05T01:25:30.278Z,94233.86
2018-07-05T01:28:10.316Z,94235.75
2018-07-05T01:30:50.253Z,94236.49
2018-07-05T01:33:30.722Z,94227.24
2018-07-05T01:36:12.149Z,94224.63
2018-07-05T01:38:52.361Z,94227.31
2018-07-05T01:41:32.451Z,94221.26
2018-07-05T01:44:12.949Z,94231.45
2018-07-05T01:46:53.226Z,94233.72
2018-07-05T01:49:33.175Z,94244.54
2018-07-05T01:52:13.763Z,94242.33
2018-07-05T01:54:55.556Z,94236.45
2018-07-05T01:57:35.875Z,94237.45
2018-07-05T02:00:16.481Z,94233.45
2018-07-05T02:02:56.517Z,94230.33
2018-07-05T02:05:36.718Z,94221.41
2018-07-05T02:08:16.822Z,94232.09
2018-07-05T02:10:57.077Z,94225.84
2018-07-05T02:13:37.396Z,94227.23
2018-07-05T02:16:17.409Z,94230.33
2018-07-05T02:18:57.938Z,94225.88
2018-07-05T02:21:38.310Z,94222.04
2018-07-05T02:24:18.561Z,94227.23
2018-07-05T02:26:58.969Z,94223.50
2018-07-05T02:29:40.798Z,94221.82
2018-07-05T02:32:21.210Z,94221.09
2018-07-05T02:35:01.570Z,94218.84
2018-07-05T02:37:46.869Z,94220.86
2018-07-05T02:40:27.084Z,94225.10
2018-07-05T02:43:06.851Z,94219.04
2018-07-05T02:45:48.236Z,94216.24
2018-07-05T02:48:28.705Z,94220.77
2018-07-05T02:51:09.276Z,94217.17
2018-07-05T02:53:49.494Z,94216.39
2018-07-05T02:56:29.997Z,94220.25
2018-07-05T02:59:10.361Z,94224.21
2018-07-05T03:01:52.330Z,94224.68
2018-07-05T03:04:32.519Z,94225.30
2018-07-05T03:07:13.206Z,94226.78
2018-07-05T03:09:53.565Z,94220.86
2018-07-05T03:12:34.162Z,94224.31
2018-07-05T03:15:16.050Z,94228.54
2018-07-05T03:17:57.222Z,94220.91
2018-07-05T03:20:37.540Z,94213.48
2018-07-05T03:23:17.996Z,94218.06
2018-07-05T03:25:58.108Z,94215.08
2018-07-05T03:28:38.218Z,94215.13
2018-07-05T03:31:18.127Z,94220.70
2018-07-05T03:33:58.004Z,94221.03
2018-07-05T03:36:38.023Z,94224.16
2018-07-05T03:39:18.007Z,94231.98
2018-07-05T03:41:58.243Z,94234.83
2018-07-05T03:44:38.515Z,94237.09
2018-07-05T03:47:18.704Z,94239.45
2018-07-05T03:49:58.577Z,94245.67
2018-07-05T03:52:38.806Z,94247.20
2018-07-05T03:55:19.027Z,94244.20
2018-07-05T03:57:59.765Z,94241.78
2018-07-05T04:00:40.119Z,94240.63
2018-07-05T04:03:20.120Z,94232.78
2018-07-05T04:06:00.996Z,94238.05
2018-07-05T04:08:41.052Z,94241.70
2018-07-05T04:11:20.996Z,94229.85
2018-07-05T04:14:01.589Z,94225.11
2018-07-05T04:16:42.027Z,94222.83
2018-07-05T04:19:22.057Z,94220.81
2018-07-05T04:22:02.220Z,94215.73
2018-07-05T04:24:42.085Z,94214.63
2018-07-05T04:27:22.186Z,94204.58
2018-07-05T04:30:02.494Z,94202.17
2018-07-05T04:32:42.718Z,94202.55
2018-07-05T04:35:22.780Z,94192.20
2018-07-05T04:38:02.821Z,94187.55
2018-07-05T04:40:42.794Z,94186.30
2018-07-05T04:43:22.831Z,94187.60
2018-07-05T04:46:02.627Z,94178.93
2018-07-05T04:48:43.164Z,94170.50
2018-07-05T04:51:23.337Z,94165.86
2018-07-05T04:54:03.221Z,94167.81
2018-07-05T04:56:43.248Z,94170.52
2018-07-05T04:59:23.637Z,94178.84
2018-07-05T05:02:03.543Z,94185.56
2018-07-05T05:04:43.645Z,94194.08
2018-07-05T05:07:23.748Z,94190.42
2018-07-05T05:10:03.931Z,94197.36
2018-07-05T05:12:43.951Z,94198.14
2018-07-05T05:15:23.912Z,94193.90
2018-07-05T05:18:04.162Z,94189.60
2018-07-05T05:20:44.199Z,94177.02
2018-07-05T05:23:24.539Z,94181.29
2018-07-05T05:26:05.242Z,94192.91
2018-07-05T05:28:45.437Z,94190.38
2018-07-05T05:31:25.343Z,94184.65
2018-07-05T05:34:05.501Z,94190.78
2018-07-05T05:36:45.826Z,94193.74
2018-07-05T05:39:25.828Z,94185.91
2018-07-05T05:42:06.193Z,94186.45
2018-07-05T05:44:46.638Z,94178.80
2018-07-05T05:47:26.802Z,94171.98
2018-07-05T05:50:06.827Z,94166.20
2018-07-05T05:52:46.923Z,94159.62
2018-07-05T05:55:26.953Z,94160.11
2018-07-05T05:58:06.962Z,94156.72
2018-07-05T06:00:47.046Z,94155.66
2018-07-05T06:03:27.269Z,94156.70
2018-07-05T06:06:07.472Z,94153.28
2018-07-05T06:08:47.498Z,94145.13
2018-07-05T06:11:27.586Z,94145.39
2018-07-05T06:14:08.109Z,94138.06
2018-07-05T06:16:48.097Z,94136.34
2018-07-05T06:19:28.281Z,94129.77
2018-07-05T06:22:08.419Z,94132.55
2018-07-05T06:24:48.643Z,94127.14
2018-07-05T06:27:29.090Z,94122.70
2018-07-05T06:30:09.186Z,94121.92
2018-07-05T06:32:49.607Z,94121.70
2018-07-05T06:35:30.203Z,94114.89
2018-07-05T06:38:10.522Z,94116.83
2018-07-05T06:40:50.550Z,94110.30
2018-07-05T06:43:30.657Z,94102.79
2018-07-05T06:46:10.692Z,94102.42
2018-07-05T06:48:50.974Z,94096.94
2018-07-05T06:51:30.782Z,94085.52
2018-07-05T06:54:10.678Z,94091.55
2018-07-05T06:56:50.887Z,94082.72
2018-07-05T06:59:30.935Z,94080.30
2018-07-05T07:02:11.285Z,94076.00
2018-07-05T07:04:51.443Z,94079.72
2018-07-05T07:07:31.407Z,94068.45
2018-07-05T07:10:12.160Z,94067.50
2018-07-05T07:12:52.586Z,94066.87
2018-07-05T07:15:33.145Z,94070.20
2018-07-05T07:18:13.263Z,94070.70
2018-07-05T07:20:53.350Z,94063.56
2018-07-05T07:23:33.513Z,94057.31
2018-07-05T07:26:13.877Z,94065.60
2018-07-05T07:28:54.231Z,94056.90
2018-07-05T07:31:35.408Z,94053.05
2018-07-05T07:34:15.418Z,94053.63
2018-07-05T07:36:56.081Z,94047.09
2018-07-05T07:39:36.278Z,94039.70
2018-07-05T07:42:03.832Z,94036.05
2018-07-05T07:44:31.534Z,94031.20
2018-07-05T07:46:59.178Z,94029.68
2018-07-05T07:49:26.812Z,94027.84
2018-07-05T07:51:54.799Z,94022.17
2018-07-05T07:54:22.580Z,94014.72
2018-07-05T07:56:50.279Z,94023.90
2018-07-05T07:59:18.207Z,94023.34
2018-07-05T08:01:45.951Z,94017.72
2018-07-05T08:04:13.936Z,94013.92
2018-07-05T08:06:41.710Z,94007.79
2018-07-05T08:09:09.458Z,94008.98
2018-07-05T08:11:38.051Z,94008.19
2018-07-05T08:14:06.231Z,94006.86
2018-07-05T08:16:34.094Z,94000.30
2018-07-05T08:19:02.067Z,93997.14
2018-07-05T08:21:29.825Z,93998.98
2018-07-05T08:23:57.867Z,93991.92
2018-07-05T08:26:26.076Z,93994.78
2018-07-05T08:28:55.391Z,93990.94
2018-07-05T08:31:23.262Z,93994.20
2018-07-05T08:33:51.535Z,93987.27
2018-07-05T08:36:19.506Z,93989.91
2018-07-05T08:38:47.256Z,93979.60
2018-07-05T08:41:15.363Z,93982.13
2018-07-05T08:43:43.194Z,93972.66
2018-07-05T08:46:12.365Z,93963.63
2018-07-05T08:48:40.255Z,93965.64
2018-07-05T08:51:08.432Z,93959.95
2018-07-05T08:53:36.200Z,93951.31
2018-07-05T08:56:03.933Z,93941.53
2018-07-05T08:58:31.703Z,93949.20
2018-07-05T09:00:59.392Z,93945.62
2018-07-05T09:03:27.255Z,93941.22
2018-07-05T09:05:54.918Z,93941.61
2018-07-05T09:08:22.620Z,93937.70
2018-07-05T09:10:50.400Z,93930.52
2018-07-05T09:13:18.113Z,93931.89
2018-07-05T09:15:45.721Z,93926.04
2018-07-05T09:18:13.731Z,93921.97
2018-07-05T09:20:41.602Z,93921.97
2018-07-05T09:23:09.415Z,93915.17
2018-07-05T09:25:37.014Z,93908.68
2018-07-05T09:28:04.701Z,93911.34
2018-07-05T09:30:32.375Z,93910.48
2018-07-05T09:33:00.044Z,93898.50
2018-07-05T09:35:27.800Z,93899.78
2018-07-05T09:37:56.215Z,93892.54
2018-07-05T09:40:23.954Z,93888.72
2018-07-05T09:42:52.295Z,93881.05
2018-07-05T09:45:20.390Z,93876.30
2018-07-05T09:47:48.102Z,93866.03
2018-07-05T09:50:15.914Z,93869.93
2018-07-05T09:52:43.767Z,93863.76
2018-07-05T09:55:11.654Z,93860.77
2018-07-05T09:57:40.041Z,93862.80
2018-07-05T10:00:09.639Z,93851.99
2018-07-05T10:02:37.420Z,93847.12
2018-07-05T10:05:05.028Z,93842.63
2018-07-05T10:07:33.056Z,93843.41
2018-07-05T10:10:00.777Z,93839.19
2018-07-05T10:12:29.077Z,93833.91
2018-07-05T10:14:56.792Z,93835.73
2018-07-05T10:17:24.456Z,93831.59
2018-07-05T10:19:52.266Z,93828.73
2018-07-05T10:22:19.796Z,93821.11
2018-07-05T10:24:47.720Z,93822.54
2018-07-05T10:27:15.335Z,93816.66
2018-07-05T10:29:55.334Z,93815.31
2018-07-05T10:32:35.488Z,93817.88
2018-07-05T10:35:03.224Z,93805.75
2018-07-05T10:37:30.959Z,93817.19
2018-07-05T10:40:11.347Z,93805.11
2018-07-05T10:42:51.550Z,93801.34
2018-07-05T10:45:31.468Z,93795.56
2018-07-05T10:48:11.574Z,93791.85
2018-07-05T10:50:51.594Z,93798.34
2018-07-05T10:53:31.685Z,93789.73
2018-07-05T10:56:11.718Z,93781.84
2018-07-05T10:58:51.613Z,93780.14
2018-07-05T11:01:31.603Z,93780.83
2018-07-05T11:04:11.961Z,93776.42
2018-07-05T11:06:52.825Z,93775.43
2018-07-05T11:09:33.159Z,93765.61
2018-07-05T11:12:13.257Z,93760.69
2018-07-05T11:14:54.043Z,93760.97
2018-07-05T11:17:34.141Z,93752.46
2018-07-05T11:20:14.047Z,93748.09
2018-07-05T11:22:54.175Z,93741.25
2018-07-05T11:25:34.106Z,93743.20
2018-07-05T11:28:13.988Z,93735.03
2018-07-05T11:30:53.911Z,93728.92
2018-07-05T11:33:34.140Z,93722.33
2018-07-05T11:36:14.575Z,93717.44
2018-07-05T11:38:54.855Z,93711.30
2018-07-05T11:41:35.029Z,93705.80
2018-07-05T11:44:15.130Z,93707.27
2018-07-05T11:46:55.045Z,93701.12
2018-07-05T11:49:35.113Z,93703.61
2018-07-05T11:52:15.168Z,93689.37
2018-07-05T11:54:55.210Z,93690.89
2018-07-05T11:57:35.196Z,93684.73
2018-07-05T12:00:15.433Z,93687.42
2018-07-05T12:02:55.364Z,93680.70
2018-07-05T12:05:35.316Z,93680.86
2018-07-05T12:08:15.754Z,93680.16
2018-07-05T12:10:56.023Z,93677.44
2018-07-05T12:13:36.259Z,93668.92
2018-07-05T12:16:16.319Z,93670.48
2018-07-05T12:18:56.281Z,93669.66
2018-07-05T12:21:36.367Z,93670.36
2018-07-05T12:24:16.306Z,93664.58
2018-07-05T12:26:56.658Z,93661.25
2018-07-05T12:29:36.893Z,93660.77
2018-07-05T12:32:16.879Z,93649.67
2018-07-05T12:34:57.045Z,93645.66
2018-07-05T12:37:37.093Z,93647.42
2018-07-05T12:40:17.735Z,93639.88
2018-07-05T12:42:57.821Z,93635.97
2018-07-05T12:45:37.918Z,93636.59
2018-07-05T12:48:18.789Z,93637.11
2018-07-05T12:50:58.678Z,93624.15
2018-07-05T12:53:39.221Z,93627.99
2018-07-05T12:56:19.598Z,93618.24
2018-07-05T12:58:59.533Z,93616.45
2018-07-05T13:01:40.881Z,93603.52
2018-07-05T13:04:20.719Z,93605.33
2018-07-05T13:07:00.632Z,93600.64
2018-07-05T13:09:40.357Z,93595.17
2018-07-05T13:12:20.295Z,93600.23
2018-07-05T13:15:00.156Z,93599.19
2018-07-05T13:17:40.239Z,93612.14
2018-07-05T13:20:20.329Z,93605.89
2018-07-05T13:23:00.324Z,93613.25
2018-07-05T13:25:40.062Z,93611.92
2018-07-05T13:28:19.942Z,93612.95
2018-07-05T13:30:59.967Z,93609.29
2018-07-05T13:33:44.110Z,93616.41
2018-07-05T13:36:24.222Z,93614.45
2018-07-05T13:39:05.115Z,93614.45
2018-07-05T13:41:45.097Z,93613.34
2018-07-05T13:44:25.265Z,93609.32
2018-07-05T13:47:05.626Z,93605.59
2018-07-05T13:49:45.865Z,93605.64
2018-07-05T13:52:25.899Z,93611.22
2018-07-05T13:55:06.085Z,93608.37
2018-07-05T13:57:47.109Z,93609.14
2018-07-05T14:00:28.201Z,93608.41
2018-07-05T14:03:08.386Z,93604.37
2018-07-05T14:05:49.080Z,93604.41
2018-07-05T14:08:29.682Z,93595.66
2018-07-05T14:11:09.782Z,93596.17
2018-07-05T14:13:51.159Z,93593.02
2018-07-05T14:16:31.327Z,93597.87
2018-07-05T14:19:12.197Z,93595.42
2018-07-05T14:21:52.539Z,93596.62
2018-07-05T14:24:32.558Z,93604.95
2018-07-05T14:27:12.563Z,93601.86
2018-07-05T14:29:53.086Z,93602.62
2018-07-05T14:32:33.280Z,93600.73
2018-07-05T14:35:13.537Z,93603.54
2018-07-05T14:37:54.665Z,93599.31
2018-07-05T14:40:34.932Z,93604.83
2018-07-05T14:43:14.833Z,93605.48
2018-07-05T14:45:55.348Z,93598.51
2018-07-05T14:48:35.450Z,93591.25
2018-07-05T14:51:15.567Z,93597.95
2018-07-05T14:53:55.431Z,93596.33
2018-07-05T14:56:35.562Z,93596.27
2018-07-05T14:59:15.989Z,93606.80
2018-07-05T15:01:56.130Z,93605.13
2018-07-05T15:04:36.974Z,93614.87
2018-07-05T15:07:17.234Z,93615.94
2018-07-05T15:09:57.728Z,93616.95
2018-07-05T15:12:37.665Z,93612.16
2018-07-05T15:15:17.829Z,93611.58
2018-07-05T15:17:58.143Z,93603.15
2018-07-05T15:20:38.450Z,93619.42
2018-07-05T15:23:18.375Z,93617.58
2018-07-05T15:25:59.459Z,93631.56
2018-07-05T15:28:39.624Z,93638.73
2018-07-05T15:31:19.859Z,93649.21
2018-07-05T15:34:01.035Z,93674.73
2018-07-05T15:36:41.187Z,93720.14
2018-07-05T15:39:21.619Z,93735.03
2018-07-05T15:42:01.813Z,93734.53
2018-07-05T15:44:42.452Z,93750.47
2018-07-05T15:47:22.970Z,93779.81
2018-07-05T15:50:03.377Z,93784.38
2018-07-05T15:52:43.959Z,93791.19
2018-07-05T15:55:24.771Z,93808.15
2018-07-05T15:58:05.614Z,93834.78
2018-07-05T16:00:45.873Z,93835.24
2018-07-05T16:03:26.223Z,93844.55
2018-07-05T16:06:07.181Z,93855.78
2018-07-05T16:08:47.551Z,93860.30
2018-07-05T16:11:27.426Z,93859.51
2018-07-05T16:14:07.672Z,93852.67
2018-07-05T16:16:48.566Z,93867.49
2018-07-05T16:19:28.791Z,93872.58
2018-07-05T16:22:09.214Z,93876.84
2018-07-05T16:24:50.777Z,93881.79
2018-07-05T16:27:31.672Z,93890.67
2018-07-05T16:30:12.136Z,93899.28
2018-07-05T16:32:52.760Z,93912.28
2018-07-05T16:35:33.212Z,93921.27
2018-07-05T16:38:13.338Z,93928.28
2018-07-05T16:40:53.726Z,93934.80
2018-07-05T16:43:33.811Z,93945.97
2018-07-05T16:46:13.960Z,93947.31
2018-07-05T16:48:54.362Z,93949.33
2018-07-05T16:51:35.522Z,93953.08
2018-07-05T16:54:15.932Z,93949.48
2018-07-05T16:56:57.224Z,93947.02
2018-07-05T16:59:37.363Z,93942.54
2018-07-05T17:02:17.324Z,93949.02
2018-07-05T17:04:57.796Z,93945.08
2018-07-05T17:07:39.112Z,93943.75
2018-07-05T17:10:20.169Z,93948.13
2018-07-05T17:13:01.703Z,93955.26
2018-07-05T17:15:42.050Z,93952.98
2018-07-05T17:18:23.450Z,93959.70
2018-07-05T17:21:03.539Z,93963.91
2018-07-05T17:23:44.058Z,93963.83
2018-07-05T17:26:24.401Z,93964.77
2018-07-05T17:29:04.952Z,93966.56
2018-07-05T17:31:44.879Z,93968.92
2018-07-05T17:34:25.169Z,93970.52
2018-07-05T17:37:06.589Z,93969.19
2018-07-05T17:39:47.297Z,93974.79
2018-07-05T17:42:27.705Z,93971.81
2018-07-05T17:45:07.889Z,93997.11
2018-07-05T17:47:48.358Z,93995.63
2018-07-05T17:50:28.763Z,93997.91
2018-07-05T17:53:09.543Z,93999.66
2018-07-05T17:55:50.478Z,94005.37
2018-07-05T17:58:31.227Z,94014.48
2018-07-05T18:01:11.855Z,94016.98
2018-07-05T18:03:52.479Z,94023.57
2018-07-05T18:06:33.996Z,94025.87
2018-07-05T18:09:13.983Z,94033.38
2018-07-05T18:11:54.291Z,94040.33
2018-07-05T18:14:34.120Z,94040.10
2018-07-05T18:17:14.069Z,94035.25
2018-07-05T18:19:53.932Z,94045.52
2018-07-05T18:22:33.876Z,94049.44
2018-07-05T18:25:14.124Z,94049.94
2018-07-05T18:27:54.268Z,94054.23
2018-07-05T18:30:34.617Z,94057.66
2018-07-05T18:33:14.585Z,94062.74
2018-07-05T18:35:54.756Z,94070.74
2018-07-05T18:38:34.783Z,94077.91
2018-07-05T18:41:14.841Z,94092.37
2018-07-05T18:43:55.141Z,94100.00
2018-07-05T18:46:35.574Z,94108.65
2018-07-05T18:49:16.495Z,94110.80
2018-07-05T18:51:57.047Z,94111.09
2018-07-05T18:54:38.930Z,94107.77
2018-07-05T18:57:19.287Z,94110.88
2018-07-05T18:59:59.926Z,94112.20
2018-07-05T19:02:41.189Z,94121.70
2018-07-05T19:05:23.098Z,94125.92
2018-07-05T19:08:03.489Z,94126.19
2018-07-05T19:10:45.828Z,94125.19
2018-07-05T19:13:26.147Z,94133.06
2018-07-05T19:16:06.430Z,94135.66
2018-07-05T19:18:47.111Z,94134.56
2018-07-05T19:21:31.771Z,94134.08
2018-07-05T19:24:12.229Z,94134.59
2018-07-05T19:26:52.538Z,94136.93
2018-07-05T19:29:32.917Z,94136.97
2018-07-05T19:32:14.336Z,94132.45
2018-07-05T19:34:55.422Z,94129.08
2018-07-05T19:37:36.150Z,94124.03
2018-07-05T19:40:20.412Z,94125.66
2018-07-05T19:43:00.949Z,94124.64
2018-07-05T19:45:41.512Z,94126.70
2018-07-05T19:48:21.942Z,94123.55
2018-07-05T19:51:02.028Z,94122.23
2018-07-05T19:53:42.295Z,94128.52
2018-07-05T19:56:22.309Z,94126.97
2018-07-05T19:59:03.111Z,94129.11
2018-07-05T20:01:43.528Z,94128.59
2018-07-05T20:04:23.995Z,94126.48
2018-07-05T20:07:04.263Z,94123.30
2018-07-05T20:09:44.345Z,94128.06
2018-07-05T20:12:24.294Z,94127.01
2018-07-05T20:15:04.730Z,94117.02
2018-07-05T20:17:45.737Z,94120.70
2018-07-05T20:20:26.612Z,94119.64
2018-07-05T20:23:07.591Z,94118.34
2018-07-05T20:25:47.520Z,94110.47
2018-07-05T20:28:27.615Z,94111.24
2018-07-05T20:31:08.948Z,94112.56
2018-07-05T20:33:48.947Z,94116.52
2018-07-05T20:36:29.386Z,94109.41
2018-07-05T20:39:10.419Z,94113.36
2018-07-05T20:41:50.904Z,94110.72
2018-07-05T20:44:32.119Z,94102.31
2018-07-05T20:47:11.953Z,94101.49
2018-07-05T20:49:51.869Z,94103.08
2018-07-05T20:52:32.180Z,94104.13
2018-07-05T20:55:12.171Z,94099.16
2018-07-05T20:57:52.188Z,94090.23
2018-07-05T21:00:32.215Z,94092.84
2018-07-05T21:03:12.508Z,94088.64
2018-07-05T21:05:52.418Z,94095.21
2018-07-05T21:08:32.290Z,94085.48
2018-07-05T21:11:12.142Z,94088.64
2018-07-05T21:13:52.959Z,94086.79
2018-07-05T21:16:33.137Z,94091.79
2018-07-05T21:19:13.305Z,94090.75
2018-07-05T21:21:53.525Z,94097.58
2018-07-05T21:24:33.596Z,94107.28
2018-07-05T21:27:13.611Z,94112.80
2018-07-05T21:29:53.731Z,94123.86
2018-07-05T21:32:33.842Z,94129.64
2018-07-05T21:35:13.729Z,94133.30
2018-07-05T21:37:53.686Z,94128.57
2018-07-05T21:40:33.714Z,94132.74
2018-07-05T21:43:13.875Z,94125.67
2018-07-05T21:45:53.933Z,94129.36
2018-07-05T21:48:34.102Z,94135.14
2018-07-05T21:51:14.045Z,94137.47
2018-07-05T21:53:54.258Z,94138.53
2018-07-05T21:56:35.600Z,94142.49
2018-07-05T21:59:15.424Z,94141.70
2018-07-05T22:01:55.440Z,94156.16
2018-07-05T22:04:36.034Z,94160.88
2018-07-05T22:07:16.233Z,94161.92
2018-07-05T22:09:56.431Z,94162.47
2018-07-05T22:12:36.286Z,94162.98
2018-07-05T22:15:17.366Z,94160.35
2018-07-05T22:18:02.347Z,94160.35
2018-07-05T22:20:47.726Z,94169.00
2018-07-05T22:23:32.973Z,94171.10
2018-07-05T22:26:18.687Z,94169.80
2018-07-05T22:29:04.078Z,94171.37
2018-07-05T22:31:45.201Z,94176.61
2018-07-05T22:34:25.605Z,94178.72
2018-07-05T22:37:05.953Z,94177.18
2018-07-05T22:39:46.337Z,94176.64
2018-07-05T22:42:26.481Z,94170.83
2018-07-05T22:45:07.392Z,94160.85
2018-07-05T22:47:47.571Z,94163.50
2018-07-05T22:50:27.857Z,94161.13
2018-07-05T22:53:07.667Z,94159.80
2018-07-05T22:55:47.867Z,94159.55
2018-07-05T22:58:29.002Z,94163.77
2018-07-05T23:01:08.942Z,94159.53
2018-07-05T23:03:48.794Z,94154.04
2018-07-05T23:06:28.986Z,94156.66
2018-07-05T23:09:09.062Z,94154.55
2018-07-05T23:11:49.216Z,94154.81
2018-07-05T23:14:29.366Z,94153.23
2018-07-05T23:17:09.389Z,94161.63
2018-07-05T23:19:49.186Z,94157.70
2018-07-05T23:22:29.072Z,94161.33
2018-07-05T23:25:09.270Z,94161.09
2018-07-05T23:27:49.324Z,94163.47
2018-07-05T23:30:29.392Z,94156.13
2018-07-05T23:33:09.547Z,94157.45
2018-07-05T23:35:49.523Z,94154.02
2018-07-05T23:38:29.452Z,94157.42
2018-07-05T23:41:09.551Z,94155.32
2018-07-05T23:43:49.747Z,94156.11
2018-07-05T23:46:29.700Z,94152.70
2018-07-05T23:49:09.812Z,94154.80
2018-07-05T23:51:50.313Z,94150.08
2018-07-05T23:54:30.466Z,94145.88
2018-07-05T23:57:10.615Z,94145.63
2018-07-05T23:59:50.527Z,94147.45
